Time,TemperatureF,DewpointF,PressureIn,WindDirection,WindDirectionDegrees,WindSpeedMPH,WindSpeedGustMPH,Humidity,HourlyPrecipIn,Conditions,Clouds,dailyrainin,SoftwareType,DateUTC
2013-04-04 00:00:00,64.0,63.2,30.00,NE,45,2.5,5.8,97,0.04,-RA,,0.40,WeatherDisplay:10.37,2013-04-04 04:00:00,
2013-04-04 00:01:00,64.0,63.2,30.00,NE,45,1.4,5.8,97,0.04,-RA,,0.00,WeatherDisplay:10.37,2013-04-04 04:01:00,
2013-04-04 00:06:00,64.0,63.2,30.01,SE,135,1.1,5.8,97,0.04,-RA,,0.00,WeatherDisplay:10.37,2013-04-04 04:06:00,
2013-04-04 00:11:00,64.2,63.4,30.01,NE,45,0.3,2.8,97,0.04,-RA,,0.00,WeatherDisplay:10.37,2013-04-04 04:11:00,
2013-04-04 00:16:00,64.2,63.4,30.00,NE,45,0.4,2.3,97,0.04,-RA,,0.00,WeatherDisplay:10.37,2013-04-04 04:16:00,
2013-04-04 00:22:00,64.2,63.4,30.01,NE,45,0.5,2.8,97,0.04,-RA,,0.00,WeatherDisplay:10.37,2013-04-04 04:22:00,
2013-04-04 00:27:00,64.2,63.4,30.01,NE,45,0.5,2.8,97,0.04,-RA,,0.00,WeatherDisplay:10.37,2013-04-04 04:27:00,
2013-04-04 00:32:00,64.4,63.5,30.01,NE,45,0.3,4.6,97,0.04,-RA,,0.00,WeatherDisplay:10.37,2013-04-04 04:32:00,
2013-04-04 00:37:00,64.4,63.5,30.01,East,90,0.2,4.6,97,0.04,-RA,,0.00,WeatherDisplay:10.37,2013-04-04 04:37:00,
2013-04-04 00:42:00,64.6,63.7,30.02,NE,45,0.2,2.3,97,0.02,-RA,,0.00,WeatherDisplay:10.37,2013-04-04 04:42:00,
2013-04-04 00:47:00,64.6,63.7,30.02,NE,45,0.2,2.3,97,0.02,-RA,,0.00,WeatherDisplay:10.37,2013-04-04 04:47:00,
2013-04-04 00:52:00,64.6,63.7,30.01,NE,45,0.7,2.8,97,0.02,-RA,,0.00,WeatherDisplay:10.37,2013-04-04 04:52:00,
2013-04-04 00:57:00,64.6,63.7,30.01,NE,45,0.8,2.8,97,0.02,-RA,,0.00,WeatherDisplay:10.37,2013-04-04 04:57:00,
2013-04-04 01:02:00,64.6,63.7,30.01,NE,45,1.3,2.8,97,0.02,-RA,,0.00,WeatherDisplay:10.37,2013-04-04 05:02:00,
2013-04-04 01:07:00,64.8,63.9,30.00,NE,45,1.6,4.6,97,0.02,OVC,,0.00,WeatherDisplay:10.37,2013-04-04 05:07:00,
2013-04-04 01:12:00,64.8,63.9,30.00,NE,45,1.6,4.6,97,0.02,OVC,,0.00,WeatherDisplay:10.37,2013-04-04 05:12:00,
2013-04-04 01:17:00,64.8,63.9,30.00,East,90,0.9,5.6,97,0.00,OVC,,0.00,WeatherDisplay:10.37,2013-04-04 05:17:00,
2013-04-04 01:22:00,64.8,63.9,30.00,NE,45,0.5,5.8,97,0.00,OVC,,0.00,WeatherDisplay:10.37,2013-04-04 05:22:00,
2013-04-04 01:27:00,64.8,63.9,30.00,NE,45,0.2,4.6,97,0.00,OVC,,0.00,WeatherDisplay:10.37,2013-04-04 05:27:00,
2013-04-04 01:32:00,64.9,64.1,30.00,NE,45,2.8,8.1,97,0.00,OVC,,0.00,WeatherDisplay:10.37,2013-04-04 05:32:00,
2013-04-04 01:38:00,64.9,64.1,30.00,NE,45,2.3,8.1,97,0.00,OVC,,0.00,WeatherDisplay:10.37,2013-04-04 05:38:00,
2013-04-04 01:43:00,64.9,64.1,30.00,NE,45,1.2,4.6,97,0.00,OVC,,0.00,WeatherDisplay:10.37,2013-04-04 05:43:00,
2013-04-04 01:47:00,64.9,64.1,29.99,NE,45,1.5,4.6,97,0.00,OVC,,0.00,WeatherDisplay:10.37,2013-04-04 05:47:00,
2013-04-04 01:48:00,64.9,64.1,29.99,NE,45,1.5,4.6,97,0.00,OVC,,0.00,WeatherDisplay:10.37,2013-04-04 05:48:00,
2013-04-04 01:53:00,64.9,64.1,29.99,NE,45,1.5,4.6,97,0.00,OVC,,0.00,WeatherDisplay:10.37,2013-04-04 05:53:00,
2013-04-04 02:00:00,64.9,64.1,29.99,NE,45,1.5,5.8,97,0.00,OVC,,0.00,WeatherDisplay:10.37,2013-04-04 06:00:00,
2013-04-04 02:05:00,64.9,64.1,29.99,NE,45,1.2,5.8,97,0.00,OVC,,0.00,WeatherDisplay:10.37,2013-04-04 06:05:00,
2013-04-04 02:10:00,64.9,64.1,29.99,NE,45,0.3,1.4,97,0.00,OVC,,0.00,WeatherDisplay:10.37,2013-04-04 06:10:00,
2013-04-04 02:15:00,64.9,64.1,29.99,East,90,1.2,2.7,97,0.00,OVC,,0.00,WeatherDisplay:10.37,2013-04-04 06:15:00,
2013-04-04 02:20:00,64.9,64.1,29.99,East,90,1.2,2.7,97,0.00,OVC,,0.00,WeatherDisplay:10.37,2013-04-04 06:20:00,
2013-04-04 02:25:00,64.9,64.1,29.98,East,90,1.4,3.5,97,0.00,OVC,,0.00,WeatherDisplay:10.37,2013-04-04 06:25:00,
2013-04-04 02:30:00,65.1,64.2,29.97,NE,45,1.6,4.2,97,0.00,OVC,,0.00,WeatherDisplay:10.37,2013-04-04 06:30:00,
2013-04-04 02:35:00,65.1,64.2,29.97,NE,45,1.6,4.6,97,0.00,OVC,,0.00,WeatherDisplay:10.37,2013-04-04 06:35:00,
2013-04-04 02:40:00,65.3,64.4,29.97,NE,45,1.6,4.6,97,0.00,OVC,,0.00,WeatherDisplay:10.37,2013-04-04 06:40:00,
2013-04-04 02:45:00,65.3,64.4,29.97,NE,45,1.6,4.6,97,0.00,OVC,,0.00,WeatherDisplay:10.37,2013-04-04 06:45:00,
2013-04-04 02:50:00,65.3,64.4,29.96,NE,45,2.3,5.6,97,0.00,OVC,,0.00,WeatherDisplay:10.37,2013-04-04 06:50:00,
2013-04-04 02:55:00,65.5,64.6,29.96,NE,45,2.5,5.8,97,0.00,OVC,,0.00,WeatherDisplay:10.37,2013-04-04 06:55:00,
2013-04-04 03:00:00,65.5,64.6,29.96,NE,45,3.9,6.9,97,0.00,OVC,,0.00,WeatherDisplay:10.37,2013-04-04 07:00:00,
2013-04-04 03:05:00,65.5,64.6,29.95,NE,45,2.4,6.9,97,0.00,OVC,,0.00,WeatherDisplay:10.37,2013-04-04 07:05:00,
2013-04-04 03:10:00,65.5,64.6,29.95,NE,45,2.4,6.9,97,0.00,OVC,,0.00,WeatherDisplay:10.37,2013-04-04 07:10:00,
2013-04-04 03:15:00,65.7,64.8,29.95,East,90,1.5,5.8,97,0.00,OVC,,0.00,WeatherDisplay:10.37,2013-04-04 07:15:00,
2013-04-04 03:20:00,65.7,64.8,29.95,East,90,2.4,4.6,97,0.00,OVC,,0.00,WeatherDisplay:10.37,2013-04-04 07:20:00,
2013-04-04 03:26:00,65.7,64.8,29.95,NE,45,1.3,5.8,97,0.00,-RA,,0.00,WeatherDisplay:10.37,2013-04-04 07:26:00,
2013-04-04 03:31:00,65.5,64.6,29.94,East,90,1.3,2.3,97,0.00,-RA,,0.00,WeatherDisplay:10.37,2013-04-04 07:31:00,
2013-04-04 03:36:00,65.5,64.6,29.94,SE,135,0.8,4.6,97,0.00,-RA,,0.00,WeatherDisplay:10.37,2013-04-04 07:36:00,
2013-04-04 03:41:00,65.5,64.6,29.94,NE,45,2.5,5.8,97,0.00,-RA,,0.00,WeatherDisplay:10.37,2013-04-04 07:41:00,
2013-04-04 03:46:00,65.5,64.6,29.94,NE,45,0.5,2.8,97,0.00,-RA,,0.00,WeatherDisplay:10.37,2013-04-04 07:46:00,
2013-04-04 03:51:00,65.5,64.6,29.94,NE,45,2.8,8.1,97,0.00,-RA,,0.00,WeatherDisplay:10.37,2013-04-04 07:51:00,
2013-04-04 03:56:00,65.3,64.4,29.94,East,90,3.8,5.8,97,0.00,-RA,,0.00,WeatherDisplay:10.37,2013-04-04 07:56:00,
2013-04-04 04:00:00,65.3,64.4,29.94,NE,45,0.5,5.8,97,0.00,-RA,,0.00,WeatherDisplay:10.37,2013-04-04 08:00:00,
2013-04-04 04:06:00,65.3,64.1,29.93,NE,45,2.2,6.9,96,0.00,-RA,,0.00,WeatherDisplay:10.37,2013-04-04 08:06:00,
2013-04-04 04:11:00,65.3,64.4,29.93,NE,45,1.2,4.6,97,0.00,-RA,,0.00,WeatherDisplay:10.37,2013-04-04 08:11:00,
2013-04-04 04:16:00,65.3,64.1,29.93,NE,45,1.1,4.2,96,0.00,-RA,,0.00,WeatherDisplay:10.37,2013-04-04 08:16:00,
2013-04-04 04:22:00,65.3,64.1,29.93,NE,45,0.0,5.8,96,0.00,-RA,,0.00,WeatherDisplay:10.37,2013-04-04 08:22:00,
2013-04-04 04:27:00,65.3,64.1,29.93,NE,45,0.7,5.6,96,0.00,-RA,,0.00,WeatherDisplay:10.37,2013-04-04 08:27:00,
2013-04-04 04:32:00,65.3,64.1,29.93,NE,45,0.4,2.8,96,0.00,-RA,,0.00,WeatherDisplay:10.37,2013-04-04 08:32:00,
2013-04-04 04:37:00,65.5,64.3,29.93,NE,45,1.8,5.8,96,0.00,-RA,,0.00,WeatherDisplay:10.37,2013-04-04 08:37:00,
2013-04-04 04:42:00,65.5,64.3,29.93,NE,45,0.0,1.1,96,0.00,-RA,,0.00,WeatherDisplay:10.37,2013-04-04 08:42:00,
2013-04-04 04:47:00,65.5,64.3,29.93,NE,45,0.6,5.8,96,0.00,-RA,,0.00,WeatherDisplay:10.37,2013-04-04 08:47:00,
2013-04-04 04:52:00,65.5,64.3,29.93,NE,45,2.1,5.8,96,0.00,-RA,,0.00,WeatherDisplay:10.37,2013-04-04 08:52:00,
2013-04-04 04:57:00,65.5,64.3,29.93,NE,45,1.6,5.8,96,0.00,-RA,,0.00,WeatherDisplay:10.37,2013-04-04 08:57:00,
2013-04-04 05:02:00,65.5,64.3,29.92,East,90,0.5,4.6,96,0.00,-RA,,0.00,WeatherDisplay:10.37,2013-04-04 09:02:00,
2013-04-04 05:07:00,65.5,64.3,29.92,NE,45,2.2,5.6,96,0.00,-RA,,0.00,WeatherDisplay:10.37,2013-04-04 09:07:00,
2013-04-04 05:12:00,65.5,64.3,29.92,East,90,1.5,5.8,96,0.00,-RA,,0.00,WeatherDisplay:10.37,2013-04-04 09:12:00,
2013-04-04 05:17:00,65.7,64.5,29.92,NE,45,1.3,5.8,96,0.00,-RA,,0.00,WeatherDisplay:10.37,2013-04-04 09:17:00,
2013-04-04 05:22:00,65.8,64.7,29.92,NE,45,1.0,5.8,96,0.00,-RA,,0.00,WeatherDisplay:10.37,2013-04-04 09:22:00,
2013-04-04 05:27:00,65.8,64.7,29.92,NE,45,0.0,0.0,96,0.00,-RA,,0.00,WeatherDisplay:10.37,2013-04-04 09:27:00,
2013-04-04 05:32:00,65.8,64.7,29.92,NE,45,0.0,1.1,96,0.00,-RA,,0.00,WeatherDisplay:10.37,2013-04-04 09:32:00,
2013-04-04 05:37:00,65.8,64.7,29.92,East,90,0.2,2.8,96,0.00,-RA,,0.00,WeatherDisplay:10.37,2013-04-04 09:37:00,
2013-04-04 05:42:00,65.8,64.7,29.92,NE,45,1.5,5.6,96,0.00,-RA,,0.00,WeatherDisplay:10.37,2013-04-04 09:42:00,
2013-04-04 05:47:00,65.8,64.7,29.91,NE,45,0.0,1.4,96,0.00,-RA,,0.00,WeatherDisplay:10.37,2013-04-04 09:47:00,
2013-04-04 05:52:00,65.8,64.7,29.91,South,180,0.6,4.6,96,0.00,-RA,,0.00,WeatherDisplay:10.37,2013-04-04 09:52:00,
2013-04-04 05:57:00,65.8,64.7,29.92,NE,45,0.4,5.8,96,0.00,-RA,,0.00,WeatherDisplay:10.37,2013-04-04 09:57:00,
2013-04-04 06:02:00,65.8,64.7,29.92,NE,45,0.1,2.3,96,0.00,-RA,,0.00,WeatherDisplay:10.37,2013-04-04 10:02:00,
2013-04-04 06:07:00,66.0,64.8,29.92,NE,45,0.0,0.0,96,0.00,-RA,,0.00,WeatherDisplay:10.37,2013-04-04 10:07:00,
2013-04-04 06:12:00,65.8,64.7,29.92,NE,45,0.0,0.0,96,0.00,OVC,,0.00,WeatherDisplay:10.37,2013-04-04 10:12:00,
2013-04-04 06:17:00,66.0,64.8,29.92,NE,45,0.3,4.2,96,0.00,OVC,,0.00,WeatherDisplay:10.37,2013-04-04 10:17:00,
2013-04-04 06:23:00,66.0,64.8,29.92,NE,45,0.1,0.0,96,0.00,OVC,,0.00,WeatherDisplay:10.37,2013-04-04 10:23:00,
2013-04-04 06:28:00,65.8,64.7,29.93,NE,45,1.6,5.8,96,0.04,RA,,0.04,WeatherDisplay:10.37,2013-04-04 10:28:00,
2013-04-04 06:33:00,66.0,64.8,29.93,NE,45,0.7,2.3,96,0.15,RA,,0.15,WeatherDisplay:10.37,2013-04-04 10:33:00,
2013-04-04 06:38:00,65.8,64.7,29.93,NE,45,0.0,0.0,96,0.24,RA,,0.24,WeatherDisplay:10.37,2013-04-04 10:38:00,
2013-04-04 06:43:00,66.0,64.8,29.92,NE,45,0.1,4.6,96,0.31,RA,,0.31,WeatherDisplay:10.37,2013-04-04 10:43:00,
2013-04-04 06:48:00,66.0,64.8,29.92,NE,45,1.0,2.3,96,0.37,RA,,0.37,WeatherDisplay:10.37,2013-04-04 10:48:00,
2013-04-04 06:53:00,66.0,65.1,29.92,NE,45,0.7,4.6,97,0.43,RA,,0.43,WeatherDisplay:10.37,2013-04-04 10:53:00,
2013-04-04 06:58:00,66.0,65.1,29.92,NE,45,0.0,2.3,97,0.43,RA,,0.43,WeatherDisplay:10.37,2013-04-04 10:58:00,
2013-04-04 07:03:00,66.0,65.1,29.92,NE,45,0.0,0.0,97,0.47,-RA,,0.47,WeatherDisplay:10.37,2013-04-04 11:03:00,
2013-04-04 07:08:00,66.0,65.1,29.93,NE,45,0.0,0.0,97,0.47,-RA,,0.47,WeatherDisplay:10.37,2013-04-04 11:08:00,
2013-04-04 07:13:00,66.0,65.1,29.93,NE,45,0.0,0.0,97,0.47,-RA,,0.47,WeatherDisplay:10.37,2013-04-04 11:13:00,
2013-04-04 07:18:00,66.0,65.1,29.93,SE,135,0.0,2.3,97,0.47,-RA,,0.47,WeatherDisplay:10.37,2013-04-04 11:18:00,
2013-04-04 07:23:00,66.2,65.3,29.93,SE,135,0.2,4.6,97,0.47,-RA,,0.47,WeatherDisplay:10.37,2013-04-04 11:23:00,
2013-04-04 07:28:00,66.4,65.5,29.93,East,90,0.0,0.0,97,0.43,-RA,,0.47,WeatherDisplay:10.37,2013-04-04 11:28:00,
2013-04-04 07:33:00,66.4,65.5,29.93,East,90,0.0,0.0,97,0.39,-RA,,0.47,WeatherDisplay:10.37,2013-04-04 11:33:00,
2013-04-04 07:38:00,66.4,65.5,29.92,East,90,0.0,0.0,97,0.39,-RA,,0.47,WeatherDisplay:10.37,2013-04-04 11:38:00,
2013-04-04 07:43:00,66.4,65.5,29.92,East,90,0.0,0.0,97,0.39,-RA,,0.47,WeatherDisplay:10.37,2013-04-04 11:43:00,
2013-04-04 07:48:00,66.4,65.5,29.91,East,90,0.0,0.0,97,0.32, +RA,,0.47,WeatherDisplay:10.37,2013-04-04 11:48:00,
2013-04-04 07:53:00,66.6,65.7,29.91,East,90,0.0,0.0,97,0.32, +RA,,0.47,WeatherDisplay:10.37,2013-04-04 11:53:00,
2013-04-04 07:58:00,66.6,65.7,29.91,East,90,0.0,0.0,97,0.32, +RA,,0.47,WeatherDisplay:10.37,2013-04-04 11:58:00,
2013-04-04 08:03:00,66.7,65.9,29.91,East,90,0.0,0.0,97,0.20,BKN,,0.47,WeatherDisplay:10.37,2013-04-04 12:03:00,
2013-04-04 08:08:00,66.7,65.9,29.91,East,90,0.0,0.0,97,0.14,BKN,,0.47,WeatherDisplay:10.37,2013-04-04 12:08:00,
2013-04-04 08:13:00,66.9,66.0,29.92,East,90,0.0,0.0,97,0.06,BKN,,0.47,WeatherDisplay:10.37,2013-04-04 12:13:00,
2013-04-04 08:18:00,66.9,66.0,29.92,East,90,0.0,0.0,97,0.04,BKN,,0.47,WeatherDisplay:10.37,2013-04-04 12:18:00,
2013-04-04 08:23:00,66.9,66.0,29.91,East,90,0.0,0.0,97,0.04,BKN,,0.47,WeatherDisplay:10.37,2013-04-04 12:23:00,
2013-04-04 08:28:00,67.1,66.2,29.91,East,90,0.0,0.0,97,0.00,BKN,,0.47,WeatherDisplay:10.37,2013-04-04 12:28:00,
2013-04-04 08:33:00,66.9,66.0,29.91,East,90,0.0,0.0,97,0.00,BKN,,0.47,WeatherDisplay:10.37,2013-04-04 12:33:00,
2013-04-04 08:38:00,66.9,66.0,29.91,East,90,0.0,1.4,97,0.00,BKN,,0.47,WeatherDisplay:10.37,2013-04-04 12:38:00,
2013-04-04 08:43:00,67.3,66.4,29.91,East,90,0.0,0.0,97,0.00,BKN,,0.47,WeatherDisplay:10.37,2013-04-04 12:43:00,
2013-04-04 08:48:00,67.6,66.8,29.91,East,90,0.0,0.0,97,0.00,BKN,,0.47,WeatherDisplay:10.37,2013-04-04 12:48:00,
2013-04-04 08:53:00,67.8,66.9,29.91,East,90,0.0,0.0,97,0.00,BKN,,0.47,WeatherDisplay:10.37,2013-04-04 12:53:00,
2013-04-04 08:58:00,68.0,67.1,29.91,East,90,0.0,0.0,97,0.00,BKN,,0.47,WeatherDisplay:10.37,2013-04-04 12:58:00,
2013-04-04 09:03:00,68.4,67.5,29.91,East,90,0.0,0.0,97,0.00,OVC,,0.47,WeatherDisplay:10.37,2013-04-04 13:03:00,
2013-04-04 09:08:00,68.5,67.7,29.91,East,90,0.0,0.0,97,0.00,OVC,,0.47,WeatherDisplay:10.37,2013-04-04 13:08:00,
2013-04-04 09:13:00,69.1,68.2,29.91,East,90,0.0,0.0,97,0.00,OVC,,0.47,WeatherDisplay:10.37,2013-04-04 13:13:00,
2013-04-04 09:18:00,69.1,68.2,29.92,East,90,0.0,2.3,97,0.00,OVC,,0.47,WeatherDisplay:10.37,2013-04-04 13:18:00,
2013-04-04 09:23:00,69.4,68.6,29.92,East,90,0.0,0.0,97,0.00,OVC,,0.47,WeatherDisplay:10.37,2013-04-04 13:23:00,
2013-04-04 09:28:00,69.6,68.7,29.92,East,90,0.0,0.0,97,0.00,OVC,,0.47,WeatherDisplay:10.37,2013-04-04 13:28:00,
2013-04-04 09:33:00,70.0,69.1,29.92,East,90,0.0,0.0,97,0.00,OVC,,0.47,WeatherDisplay:10.37,2013-04-04 13:33:00,
2013-04-04 09:38:00,70.5,69.6,29.91,East,90,0.0,0.0,97,0.00,OVC,,0.47,WeatherDisplay:10.37,2013-04-04 13:38:00,
2013-04-04 09:43:00,70.3,69.4,29.91,East,90,0.0,0.0,97,0.00,OVC,,0.47,WeatherDisplay:10.37,2013-04-04 13:43:00,
2013-04-04 09:48:00,70.7,69.5,29.91,East,90,0.0,0.0,96,0.00,OVC,,0.47,WeatherDisplay:10.37,2013-04-04 13:48:00,
2013-04-04 09:53:00,70.9,69.7,29.91,East,90,0.0,0.0,96,0.00,OVC,,0.47,WeatherDisplay:10.37,2013-04-04 13:53:00,
2013-04-04 09:58:00,71.2,70.0,29.91,East,90,0.0,0.0,96,0.00,OVC,,0.47,WeatherDisplay:10.37,2013-04-04 13:58:00,
2013-04-04 10:03:00,71.4,69.6,29.92,East,90,0.0,0.0,94,0.00,OVC,,0.47,WeatherDisplay:10.37,2013-04-04 14:03:00,
2013-04-04 10:08:00,71.6,69.8,29.92,East,90,0.0,0.0,94,0.00,OVC,,0.47,WeatherDisplay:10.37,2013-04-04 14:08:00,
2013-04-04 10:13:00,72.0,70.1,29.92,East,90,0.0,0.0,94,0.00,OVC,,0.47,WeatherDisplay:10.37,2013-04-04 14:13:00,
2013-04-04 10:18:00,72.3,69.9,29.92,East,90,0.0,0.0,92,0.00,OVC,,0.47,WeatherDisplay:10.37,2013-04-04 14:18:00,
2013-04-04 10:23:00,72.5,69.7,29.91,East,90,0.0,0.0,91,0.00,OVC,,0.47,WeatherDisplay:10.37,2013-04-04 14:23:00,
2013-04-04 10:29:00,72.7,69.9,29.91,South,180,0.0,0.0,91,0.00,OVC,,0.47,WeatherDisplay:10.37,2013-04-04 14:29:00,
2013-04-04 10:34:00,73.0,69.6,29.92,SW,225,1.6,2.8,89,0.00,OVC,,0.47,WeatherDisplay:10.37,2013-04-04 14:34:00,
2013-04-04 10:39:00,72.7,69.2,29.91,West,270,0.7,2.3,89,0.00,OVC,,0.47,WeatherDisplay:10.37,2013-04-04 14:39:00,
2013-04-04 10:44:00,73.0,69.9,29.92,SE,135,0.3,2.3,90,0.00,OVC,,0.47,WeatherDisplay:10.37,2013-04-04 14:44:00,
2013-04-04 10:49:00,72.9,69.1,29.92,SW,225,0.2,2.8,88,0.00,OVC,,0.47,WeatherDisplay:10.37,2013-04-04 14:49:00,
2013-04-04 10:54:00,73.0,69.3,29.92,SW,225,0.0,0.0,88,0.00,OVC,,0.47,WeatherDisplay:10.37,2013-04-04 14:54:00,
2013-04-04 10:59:00,73.2,68.8,29.92,SW,225,0.0,1.1,86,0.00,OVC,,0.47,WeatherDisplay:10.37,2013-04-04 14:59:00,
2013-04-04 11:04:00,73.9,69.5,29.92,SW,225,0.0,1.1,86,0.00,OVC,,0.47,WeatherDisplay:10.37,2013-04-04 15:04:00,
2013-04-04 11:09:00,74.1,69.3,29.92,SW,225,0.5,2.3,85,0.00,OVC,,0.47,WeatherDisplay:10.37,2013-04-04 15:09:00,
2013-04-04 11:15:00,74.1,69.0,29.92,SW,225,0.6,4.6,84,0.00,OVC,,0.47,WeatherDisplay:10.37,2013-04-04 15:15:00,
2013-04-04 11:20:00,74.5,69.3,29.92,SW,225,0.0,0.0,84,0.00,OVC,,0.47,WeatherDisplay:10.37,2013-04-04 15:20:00,
2013-04-04 11:25:00,74.7,69.2,29.91,SW,225,0.0,0.0,83,0.00,OVC,,0.47,WeatherDisplay:10.37,2013-04-04 15:25:00,
2013-04-04 11:30:00,74.8,69.3,29.91,SW,225,0.0,2.3,83,0.00,OVC,,0.47,WeatherDisplay:10.37,2013-04-04 15:30:00,
2013-04-04 11:35:00,75.0,69.5,29.92,SW,225,0.1,2.3,83,0.00,OVC,,0.47,WeatherDisplay:10.37,2013-04-04 15:35:00,
2013-04-04 11:40:00,74.8,69.3,29.92,SW,225,0.1,1.1,83,0.00,OVC,,0.47,WeatherDisplay:10.37,2013-04-04 15:40:00,
2013-04-04 11:45:00,74.5,68.6,29.91,SW,225,0.3,2.3,82,0.00,OVC,,0.47,WeatherDisplay:10.37,2013-04-04 15:45:00,
2013-04-04 11:50:00,74.3,68.8,29.91,SW,225,0.1,2.8,83,0.00,OVC,,0.47,WeatherDisplay:10.37,2013-04-04 15:50:00,
2013-04-04 11:55:00,74.5,68.3,29.90,West,270,0.0,2.3,81,0.00,OVC,,0.47,WeatherDisplay:10.37,2013-04-04 15:55:00,
2013-04-04 12:00:00,75.6,69.3,29.90,SW,225,2.1,6.3,81,0.00,OVC,,0.47,WeatherDisplay:10.37,2013-04-04 16:00:00,
2013-04-04 12:05:00,75.2,68.6,29.90,West,270,2.2,4.6,80,0.00,OVC,,0.47,WeatherDisplay:10.37,2013-04-04 16:05:00,
2013-04-04 12:10:00,75.4,68.0,29.90,SW,225,1.4,5.8,78,0.00,OVC,,0.47,WeatherDisplay:10.37,2013-04-04 16:10:00,
2013-04-04 12:15:00,75.6,68.6,29.91,SW,225,0.7,4.6,79,0.00,OVC,,0.47,WeatherDisplay:10.37,2013-04-04 16:15:00,
2013-04-04 12:20:00,76.1,69.1,29.92,SW,225,1.9,4.6,79,0.00,OVC,,0.47,WeatherDisplay:10.37,2013-04-04 16:20:00,
2013-04-04 12:25:00,75.9,68.6,29.92,SW,225,0.6,2.3,78,0.00,OVC,,0.47,WeatherDisplay:10.37,2013-04-04 16:25:00,
2013-04-04 12:30:00,75.7,68.4,29.91,West,270,1.9,4.2,78,0.00,OVC,,0.47,WeatherDisplay:10.37,2013-04-04 16:30:00,
2013-04-04 12:35:00,75.6,68.6,29.91,West,270,0.3,4.6,79,0.00,OVC,,0.47,WeatherDisplay:10.37,2013-04-04 16:35:00,
2013-04-04 12:40:00,75.6,68.2,29.91,West,270,0.0,4.6,78,0.00,OVC,,0.47,WeatherDisplay:10.37,2013-04-04 16:40:00,
2013-04-04 12:45:00,75.9,68.6,29.90,SW,225,0.4,2.3,78,0.00,OVC,,0.47,WeatherDisplay:10.37,2013-04-04 16:45:00,
2013-04-04 12:51:00,75.7,68.0,29.90,SW,225,1.3,4.6,77,0.00,OVC,,0.47,WeatherDisplay:10.37,2013-04-04 16:51:00,
2013-04-04 12:56:00,75.7,68.8,29.90,SW,225,0.7,2.8,79,0.00,OVC,,0.47,WeatherDisplay:10.37,2013-04-04 16:56:00,
2013-04-04 13:01:00,75.9,68.6,29.90,SW,225,0.5,2.3,78,0.00,OVC,,0.47,WeatherDisplay:10.37,2013-04-04 17:01:00,
2013-04-04 13:06:00,75.9,67.8,29.90,SW,225,1.9,4.6,76,0.00,OVC,,0.47,WeatherDisplay:10.37,2013-04-04 17:06:00,
2013-04-04 13:11:00,76.1,68.0,29.89,West,270,0.9,2.8,76,0.00,OVC,,0.47,WeatherDisplay:10.37,2013-04-04 17:11:00,
2013-04-04 13:16:00,76.1,68.0,29.89,SW,225,0.7,4.6,76,0.00,OVC,,0.47,WeatherDisplay:10.37,2013-04-04 17:16:00,
2013-04-04 13:21:00,76.3,68.2,29.89,SW,225,1.0,2.3,76,0.00,OVC,,0.47,WeatherDisplay:10.37,2013-04-04 17:21:00,
2013-04-04 13:26:00,76.3,67.8,29.89,SW,225,1.2,4.6,75,0.00,OVC,,0.47,WeatherDisplay:10.37,2013-04-04 17:26:00,
2013-04-04 13:31:00,76.1,68.0,29.89,SW,225,0.6,4.6,76,0.00,OVC,,0.47,WeatherDisplay:10.37,2013-04-04 17:31:00,
2013-04-04 13:36:00,76.3,68.2,29.89,West,270,1.2,2.3,76,0.00,OVC,,0.47,WeatherDisplay:10.37,2013-04-04 17:36:00,
2013-04-04 13:41:00,76.3,67.8,29.89,SW,225,0.6,4.6,75,0.00,OVC,,0.47,WeatherDisplay:10.37,2013-04-04 17:41:00,
2013-04-04 13:46:00,76.3,67.4,29.89,SW,225,2.0,4.6,74,0.00,OVC,,0.47,WeatherDisplay:10.37,2013-04-04 17:46:00,
2013-04-04 13:51:00,76.3,67.4,29.88,West,270,1.0,4.6,74,0.00,OVC,,0.47,WeatherDisplay:10.37,2013-04-04 17:51:00,
2013-04-04 13:56:00,76.3,67.8,29.89,SW,225,0.1,2.3,75,0.00,OVC,,0.47,WeatherDisplay:10.37,2013-04-04 17:56:00,
2013-04-04 14:01:00,76.6,68.5,29.89,West,270,1.9,5.6,76,0.00,OVC,,0.47,WeatherDisplay:10.37,2013-04-04 18:01:00,
2013-04-04 14:06:00,75.9,67.4,29.89,West,270,1.7,4.6,75,0.00,OVC,,0.47,WeatherDisplay:10.37,2013-04-04 18:06:00,
2013-04-04 14:11:00,76.1,67.6,29.89,West,270,0.2,2.8,75,0.00,OVC,,0.47,WeatherDisplay:10.37,2013-04-04 18:11:00,
2013-04-04 14:17:00,76.3,67.4,29.88,West,270,1.0,4.6,74,0.00,OVC,,0.47,WeatherDisplay:10.37,2013-04-04 18:17:00,
2013-04-04 14:22:00,76.3,67.0,29.87,SW,225,2.1,5.6,73,0.00,OVC,,0.47,WeatherDisplay:10.37,2013-04-04 18:22:00,
2013-04-04 14:27:00,76.6,67.3,29.88,West,270,2.0,4.6,73,0.00,OVC,,0.47,WeatherDisplay:10.37,2013-04-04 18:27:00,
2013-04-04 14:32:00,76.6,66.9,29.87,SW,225,3.7,6.9,72,0.00,OVC,,0.47,WeatherDisplay:10.37,2013-04-04 18:32:00,
2013-04-04 14:37:00,76.5,66.4,29.87,SW,225,2.0,5.8,71,0.00,OVC,,0.47,WeatherDisplay:10.37,2013-04-04 18:37:00,
2013-04-04 14:42:00,76.6,66.9,29.87,SW,225,1.1,4.1,72,0.00,OVC,,0.47,WeatherDisplay:10.37,2013-04-04 18:42:00,
2013-04-04 14:47:00,76.6,66.9,29.87,SW,225,2.2,4.6,72,0.00,OVC,,0.47,WeatherDisplay:10.37,2013-04-04 18:47:00,
2013-04-04 14:52:00,76.3,67.0,29.87,SW,225,2.2,5.8,73,0.00,OVC,,0.47,WeatherDisplay:10.37,2013-04-04 18:52:00,
2013-04-04 14:57:00,76.1,66.4,29.87,West,270,0.7,4.6,72,0.00,OVC,,0.47,WeatherDisplay:10.37,2013-04-04 18:57:00,
2013-04-04 15:02:00,75.9,66.6,29.87,SW,225,1.4,4.6,73,0.00,OVC,,0.47,WeatherDisplay:10.37,2013-04-04 19:02:00,
2013-04-04 15:07:00,75.7,66.5,29.87,West,270,1.3,4.6,73,0.00,OVC,,0.47,WeatherDisplay:10.37,2013-04-04 19:07:00,
2013-04-04 15:12:00,75.7,66.9,29.86,SW,225,0.6,0.0,74,0.00,OVC,,0.47,WeatherDisplay:10.37,2013-04-04 19:12:00,
2013-04-04 15:17:00,75.7,66.9,29.86,SW,225,1.0,4.6,74,0.00,OVC,,0.47,WeatherDisplay:10.37,2013-04-04 19:17:00,
2013-04-04 15:22:00,75.6,66.7,29.85,SW,225,2.6,5.8,74,0.00,OVC,,0.47,WeatherDisplay:10.37,2013-04-04 19:22:00,
2013-04-04 15:27:00,75.4,66.9,29.86,West,270,1.5,5.8,75,0.00,OVC,,0.47,WeatherDisplay:10.37,2013-04-04 19:27:00,
2013-04-04 15:32:00,75.4,67.3,29.86,West,270,0.5,2.3,76,0.00,OVC,,0.47,WeatherDisplay:10.37,2013-04-04 19:32:00,
2013-04-04 15:37:00,75.4,67.3,29.85,West,270,2.7,5.6,76,0.00,OVC,,0.47,WeatherDisplay:10.37,2013-04-04 19:37:00,
2013-04-04 15:42:00,75.0,66.6,29.84,SW,225,0.9,5.8,75,0.00,OVC,,0.47,WeatherDisplay:10.37,2013-04-04 19:42:00,
2013-04-04 15:47:00,75.2,66.7,29.84,SW,225,0.5,2.3,75,0.00,OVC,,0.47,WeatherDisplay:10.37,2013-04-04 19:47:00,
2013-04-04 15:52:00,75.4,66.9,29.84,SW,225,1.5,4.6,75,0.00,OVC,,0.47,WeatherDisplay:10.37,2013-04-04 19:52:00,
2013-04-04 15:57:00,75.4,67.3,29.84,West,270,0.3,2.8,76,0.00,OVC,,0.47,WeatherDisplay:10.37,2013-04-04 19:57:00,
2013-04-04 16:03:00,75.7,67.6,29.83,SW,225,0.2,2.3,76,0.00,OVC,,0.47,WeatherDisplay:10.37,2013-04-04 20:03:00,
2013-04-04 16:08:00,75.7,67.6,29.83,SW,225,0.4,2.3,76,0.00,OVC,,0.47,WeatherDisplay:10.37,2013-04-04 20:08:00,
2013-04-04 16:13:00,75.4,66.5,29.83,West,270,3.4,8.1,74,0.00,OVC,,0.47,WeatherDisplay:10.37,2013-04-04 20:13:00,
2013-04-04 16:18:00,75.0,65.8,29.83,East,90,3.3,8.1,73,0.00,OVC,,0.47,WeatherDisplay:10.37,2013-04-04 20:18:00,
2013-04-04 16:23:00,74.8,66.0,29.83,SW,225,2.4,5.8,74,0.00,OVC,,0.47,WeatherDisplay:10.37,2013-04-04 20:23:00,
2013-04-04 16:28:00,74.8,66.0,29.84,SW,225,1.6,5.8,74,0.00,OVC,,0.47,WeatherDisplay:10.37,2013-04-04 20:28:00,
2013-04-04 16:32:00,74.8,65.6,29.83,SW,225,1.9,5.8,73,0.00,OVC,,0.47,WeatherDisplay:10.37,2013-04-04 20:32:00,
2013-04-04 16:38:00,74.5,65.3,29.84,SW,225,2.8,5.8,73,0.00,OVC,,0.47,WeatherDisplay:10.37,2013-04-04 20:38:00,
2013-04-04 16:43:00,74.5,65.3,29.84,SW,225,3.1,5.8,73,0.00,OVC,,0.47,WeatherDisplay:10.37,2013-04-04 20:43:00,
2013-04-04 16:48:00,74.3,65.5,29.84,West,270,2.2,4.6,74,0.00,OVC,,0.47,WeatherDisplay:10.37,2013-04-04 20:48:00,
2013-04-04 16:53:00,74.3,65.5,29.84,SW,225,1.9,4.6,74,0.00,OVC,,0.47,WeatherDisplay:10.37,2013-04-04 20:53:00,
2013-04-04 16:58:00,74.5,65.3,29.83,West,270,1.5,5.8,73,0.00,OVC,,0.47,WeatherDisplay:10.37,2013-04-04 20:58:00,
2013-04-04 17:03:00,74.5,65.3,29.84,SW,225,1.4,2.8,73,0.00,OVC,,0.47,WeatherDisplay:10.37,2013-04-04 21:03:00,
2013-04-04 17:08:00,74.5,64.9,29.83,SW,225,1.6,4.6,72,0.00,OVC,,0.47,WeatherDisplay:10.37,2013-04-04 21:08:00,
2013-04-04 17:13:00,74.5,64.9,29.83,West,270,1.6,4.6,72,0.00,OVC,,0.47,WeatherDisplay:10.37,2013-04-04 21:13:00,
2013-04-04 17:18:00,74.7,65.0,29.83,SW,225,0.9,2.8,72,0.00,OVC,,0.47,WeatherDisplay:10.37,2013-04-04 21:18:00,
2013-04-04 17:23:00,74.5,65.3,29.83,SW,225,0.2,2.3,73,0.00,OVC,,0.47,WeatherDisplay:10.37,2013-04-04 21:23:00,
2013-04-04 17:28:00,74.5,65.3,29.83,SW,225,2.4,5.8,73,0.00,OVC,,0.47,WeatherDisplay:10.37,2013-04-04 21:28:00,
2013-04-04 17:33:00,74.5,65.3,29.84,South,180,1.2,5.8,73,0.00,OVC,,0.47,WeatherDisplay:10.37,2013-04-04 21:33:00,
2013-04-04 17:38:00,74.5,65.3,29.83,SW,225,1.3,4.6,73,0.00,OVC,,0.47,WeatherDisplay:10.37,2013-04-04 21:38:00,
2013-04-04 17:43:00,74.5,65.6,29.83,SW,225,0.6,2.3,74,0.00,OVC,,0.47,WeatherDisplay:10.37,2013-04-04 21:43:00,
2013-04-04 17:48:00,74.5,65.6,29.84,SW,225,0.3,2.8,74,0.00,OVC,,0.47,WeatherDisplay:10.37,2013-04-04 21:48:00,
2013-04-04 17:53:00,74.5,65.3,29.84,SW,225,2.0,4.6,73,0.00,OVC,,0.47,WeatherDisplay:10.37,2013-04-04 21:53:00,
2013-04-04 17:58:00,74.1,65.3,29.83,SW,225,2.2,5.8,74,0.00,OVC,,0.47,WeatherDisplay:10.37,2013-04-04 21:58:00,
2013-04-04 18:03:00,73.9,64.7,29.84,SW,225,1.9,4.6,73,0.00,OVC,,0.47,WeatherDisplay:10.37,2013-04-04 22:03:00,
2013-04-04 18:08:00,73.9,65.1,29.84,SW,225,1.4,2.8,74,0.00,OVC,,0.47,WeatherDisplay:10.37,2013-04-04 22:08:00,
2013-04-04 18:13:00,73.9,65.1,29.84,SW,225,1.4,4.6,74,0.00,OVC,,0.47,WeatherDisplay:10.37,2013-04-04 22:13:00,
2013-04-04 18:18:00,74.5,65.3,29.84,SW,225,0.5,4.6,73,0.00,OVC,,0.47,WeatherDisplay:10.37,2013-04-04 22:18:00,
2013-04-04 18:23:00,74.5,65.6,29.84,SW,225,0.9,2.3,74,0.00,OVC,,0.47,WeatherDisplay:10.37,2013-04-04 22:23:00,
2013-04-04 18:28:00,74.3,65.5,29.84,West,270,0.4,4.6,74,0.00,OVC,,0.47,WeatherDisplay:10.37,2013-04-04 22:28:00,
2013-04-04 18:33:00,74.1,65.7,29.84,West,270,1.2,2.8,75,0.00,OVC,,0.47,WeatherDisplay:10.37,2013-04-04 22:33:00,
2013-04-04 18:38:00,74.1,65.3,29.84,SW,225,1.3,2.3,74,0.00,OVC,,0.47,WeatherDisplay:10.37,2013-04-04 22:38:00,
2013-04-04 18:43:00,74.1,65.3,29.84,SW,225,1.9,4.6,74,0.00,OVC,,0.47,WeatherDisplay:10.37,2013-04-04 22:43:00,
2013-04-04 18:48:00,74.1,65.7,29.84,SW,225,0.4,2.3,75,0.00,OVC,,0.47,WeatherDisplay:10.37,2013-04-04 22:48:00,
2013-04-04 18:53:00,73.8,65.3,29.83,West,270,0.0,1.1,75,0.00,OVC,,0.47,WeatherDisplay:10.37,2013-04-04 22:53:00,
2013-04-04 18:58:00,73.6,65.2,29.82,West,270,0.5,2.3,75,0.00,OVC,,0.47,WeatherDisplay:10.37,2013-04-04 22:58:00,
2013-04-04 19:03:00,73.2,65.2,29.83,West,270,0.0,0.0,76,0.00,BKN,,0.47,WeatherDisplay:10.37,2013-04-04 23:03:00,
2013-04-04 19:08:00,73.0,65.0,29.83,SW,225,0.9,2.8,76,0.00,BKN,,0.47,WeatherDisplay:10.37,2013-04-04 23:08:00,
2013-04-04 19:13:00,73.0,65.0,29.83,SW,225,0.9,2.3,76,0.00,BKN,,0.47,WeatherDisplay:10.37,2013-04-04 23:13:00,
2013-04-04 19:18:00,72.7,65.1,29.83,SW,225,0.0,0.0,77,0.00,BKN,,0.47,WeatherDisplay:10.37,2013-04-04 23:18:00,
2013-04-04 19:23:00,72.5,64.9,29.83,SW,225,0.0,0.0,77,0.00,BKN,,0.47,WeatherDisplay:10.37,2013-04-04 23:23:00,
2013-04-04 19:28:00,72.3,65.1,29.83,SW,225,0.0,0.0,78,0.00,BKN,,0.47,WeatherDisplay:10.37,2013-04-04 23:28:00,
2013-04-04 19:33:00,72.3,65.1,29.83,SW,225,0.0,0.0,78,0.00,BKN,,0.47,WeatherDisplay:10.37,2013-04-04 23:33:00,
2013-04-04 19:38:00,71.8,64.9,29.83,SW,225,0.0,0.0,79,0.00,BKN,,0.47,WeatherDisplay:10.37,2013-04-04 23:38:00,
2013-04-04 19:43:00,71.4,64.6,29.83,SW,225,0.0,0.0,79,0.00,BKN,,0.47,WeatherDisplay:10.37,2013-04-04 23:43:00,
2013-04-04 19:48:00,71.2,64.8,29.83,SW,225,0.0,0.0,80,0.00,BKN,,0.47,WeatherDisplay:10.37,2013-04-04 23:48:00,
2013-04-04 19:53:00,70.9,64.8,29.83,SW,225,0.0,0.0,81,0.00,BKN,,0.47,WeatherDisplay:10.37,2013-04-04 23:53:00,
2013-04-04 19:58:00,70.7,64.6,29.83,SW,225,0.0,0.0,81,0.00,BKN,,0.47,WeatherDisplay:10.37,2013-04-04 23:58:00,
2013-04-04 20:03:00,70.3,64.6,29.84,SW,225,0.0,0.0,82,0.00,BKN,,0.47,WeatherDisplay:10.37,2013-04-05 00:03:00,
2013-04-04 20:08:00,70.2,64.8,29.84,SW,225,0.0,0.0,83,0.00,BKN,,0.47,WeatherDisplay:10.37,2013-04-05 00:08:00,
2013-04-04 20:13:00,70.0,64.6,29.84,SW,225,0.0,0.0,83,0.00,BKN,,0.47,WeatherDisplay:10.37,2013-04-05 00:13:00,
2013-04-04 20:18:00,69.6,64.6,29.84,SW,225,0.0,0.0,84,0.00,BKN,,0.47,WeatherDisplay:10.37,2013-04-05 00:18:00,
2013-04-04 20:23:00,69.4,64.4,29.84,SW,225,0.0,0.0,84,0.00,BKN,,0.47,WeatherDisplay:10.37,2013-04-05 00:23:00,
2013-04-04 20:28:00,69.1,64.4,29.84,SW,225,0.0,0.0,85,0.00,BKN,,0.47,WeatherDisplay:10.37,2013-04-05 00:28:00,
2013-04-04 20:33:00,69.1,64.4,29.84,SW,225,0.0,0.0,85,0.00,BKN,,0.47,WeatherDisplay:10.37,2013-04-05 00:33:00,
2013-04-04 20:38:00,69.1,64.4,29.84,SW,225,0.0,0.0,85,0.00,BKN,,0.47,WeatherDisplay:10.37,2013-04-05 00:38:00,
2013-04-04 20:43:00,69.1,64.4,29.84,SW,225,0.0,0.0,85,0.00,BKN,,0.47,WeatherDisplay:10.37,2013-04-05 00:43:00,
2013-04-04 20:48:00,69.4,64.4,29.84,SW,225,0.0,0.0,84,0.00,BKN,,0.47,WeatherDisplay:10.37,2013-04-05 00:48:00,
2013-04-04 20:53:00,69.6,64.6,29.84,SW,225,0.0,0.0,84,0.00,BKN,,0.47,WeatherDisplay:10.37,2013-04-05 00:53:00,
2013-04-04 20:58:00,69.6,64.6,29.84,SW,225,0.0,0.0,84,0.00,BKN,,0.47,WeatherDisplay:10.37,2013-04-05 00:58:00,
2013-04-04 21:03:00,69.8,64.4,29.84,SW,225,0.0,0.0,83,0.00,BKN,,0.47,WeatherDisplay:10.37,2013-04-05 01:03:00,
2013-04-04 21:08:00,70.0,64.2,29.84,SW,225,0.0,0.0,82,0.00,BKN,,0.47,WeatherDisplay:10.37,2013-04-05 01:08:00,
2013-04-04 21:13:00,69.8,64.1,29.84,SW,225,0.0,0.0,82,0.00,BKN,,0.47,WeatherDisplay:10.37,2013-04-05 01:13:00,
2013-04-04 21:18:00,69.8,64.1,29.85,SW,225,0.0,0.0,82,0.00,BKN,,0.47,WeatherDisplay:10.37,2013-04-05 01:18:00,
2013-04-04 21:23:00,69.6,64.2,29.85,SW,225,0.0,0.0,83,0.00,BKN,,0.47,WeatherDisplay:10.37,2013-04-05 01:23:00,
2013-04-04 21:28:00,69.6,64.2,29.85,SW,225,0.0,0.0,83,0.00,BKN,,0.47,WeatherDisplay:10.37,2013-04-05 01:28:00,
2013-04-04 21:33:00,69.1,64.0,29.86,SW,225,0.0,0.0,84,0.00,BKN,,0.47,WeatherDisplay:10.37,2013-04-05 01:33:00,
2013-04-04 21:38:00,68.9,63.9,29.86,SW,225,0.0,0.0,84,0.00,BKN,,0.47,WeatherDisplay:10.37,2013-04-05 01:38:00,
2013-04-04 21:43:00,68.7,63.7,29.85,SW,225,0.0,0.0,84,0.00,BKN,,0.47,WeatherDisplay:10.37,2013-04-05 01:43:00,
2013-04-04 21:48:00,68.5,63.8,29.86,SW,225,0.0,0.0,85,0.00,BKN,,0.47,WeatherDisplay:10.37,2013-04-05 01:48:00,
2013-04-04 21:53:00,68.4,63.7,29.87,SW,225,0.0,0.0,85,0.00,BKN,,0.47,WeatherDisplay:10.37,2013-04-05 01:53:00,
2013-04-04 21:58:00,68.2,63.8,29.86,SW,225,0.0,0.0,86,0.00,BKN,,0.47,WeatherDisplay:10.37,2013-04-05 01:58:00,
2013-04-04 22:03:00,68.0,63.7,29.86,SW,225,0.0,0.0,86,0.00,BKN,,0.47,WeatherDisplay:10.37,2013-04-05 02:03:00,
2013-04-04 22:08:00,67.8,63.5,29.86,SW,225,0.0,0.0,86,0.00,BKN,,0.47,WeatherDisplay:10.37,2013-04-05 02:08:00,
2013-04-04 22:13:00,67.6,63.6,29.86,SW,225,0.0,0.0,87,0.00,BKN,,0.47,WeatherDisplay:10.37,2013-04-05 02:13:00,
2013-04-04 22:18:00,67.6,63.6,29.87,SW,225,0.0,0.0,87,0.00,BKN,,0.47,WeatherDisplay:10.37,2013-04-05 02:18:00,
2013-04-04 22:23:00,67.6,63.6,29.87,SW,225,0.0,0.0,87,0.00,BKN,,0.47,WeatherDisplay:10.37,2013-04-05 02:23:00,
2013-04-04 22:28:00,67.6,64.0,29.87,SW,225,0.0,0.0,88,0.00,BKN,,0.47,WeatherDisplay:10.37,2013-04-05 02:28:00,
2013-04-04 22:33:00,67.6,64.0,29.87,SW,225,0.0,0.0,88,0.00,BKN,,0.47,WeatherDisplay:10.37,2013-04-05 02:33:00,
2013-04-04 22:38:00,67.3,63.6,29.87,SW,225,0.0,0.0,88,0.00,BKN,,0.47,WeatherDisplay:10.37,2013-04-05 02:38:00,
2013-04-04 22:43:00,66.9,63.2,29.86,SW,225,0.0,0.0,88,0.00,BKN,,0.47,WeatherDisplay:10.37,2013-04-05 02:43:00,
2013-04-04 22:48:00,66.7,63.4,29.87,SW,225,0.0,0.0,89,0.00,BKN,,0.47,WeatherDisplay:10.37,2013-04-05 02:48:00,
2013-04-04 22:53:00,66.6,63.2,29.87,SW,225,0.0,0.0,89,0.00,BKN,,0.47,WeatherDisplay:10.37,2013-04-05 02:53:00,
2013-04-04 22:58:00,66.4,63.4,29.87,SW,225,0.0,0.0,90,0.00,BKN,,0.47,WeatherDisplay:10.37,2013-04-05 02:58:00,
2013-04-04 23:03:00,66.4,63.4,29.86,SW,225,0.0,0.0,90,0.00,BKN,,0.47,WeatherDisplay:10.37,2013-04-05 03:03:00,
2013-04-04 23:08:00,66.2,63.2,29.87,SW,225,0.0,0.0,90,0.00,BKN,,0.47,WeatherDisplay:10.37,2013-04-05 03:08:00,
2013-04-04 23:13:00,66.0,63.0,29.87,SW,225,0.0,0.0,90,0.00,BKN,,0.47,WeatherDisplay:10.37,2013-04-05 03:13:00,
2013-04-04 23:18:00,66.0,63.0,29.87,SW,225,0.0,0.0,90,0.00,BKN,,0.47,WeatherDisplay:10.37,2013-04-05 03:18:00,
2013-04-04 23:23:00,66.0,63.0,29.87,SW,225,0.0,0.0,90,0.00,BKN,,0.47,WeatherDisplay:10.37,2013-04-05 03:23:00,
2013-04-04 23:28:00,66.4,63.4,29.87,SW,225,0.0,0.0,90,0.00,BKN,,0.47,WeatherDisplay:10.37,2013-04-05 03:28:00,
2013-04-04 23:33:00,66.4,63.4,29.87,SW,225,0.0,0.0,90,0.00,BKN,,0.47,WeatherDisplay:10.37,2013-04-05 03:33:00,
2013-04-04 23:38:00,66.4,63.7,29.87,SW,225,0.0,0.0,91,0.00,BKN,,0.47,WeatherDisplay:10.37,2013-04-05 03:38:00,
2013-04-04 23:43:00,66.4,63.4,29.86,SW,225,0.0,0.0,90,0.00,BKN,,0.47,WeatherDisplay:10.37,2013-04-05 03:43:00,
2013-04-04 23:48:00,66.4,63.0,29.87,SW,225,0.0,0.0,89,0.00,BKN,,0.47,WeatherDisplay:10.37,2013-04-05 03:48:00,
2013-04-04 23:53:00,66.4,63.0,29.86,SW,225,0.0,0.0,89,0.00,BKN,,0.47,WeatherDisplay:10.37,2013-04-05 03:53:00,
2013-04-04 23:58:00,66.4,63.0,29.86,SW,225,0.0,0.0,89,0.00,BKN,,0.47,WeatherDisplay:10.37,2013-04-05 03:58:00,